sensor_id;sensor_type;location;lat;lon;timestamp;pressure;altitude;pressure_sealevel;temperature;humidity
10652;BME280;5374;42.742;23.266;2023-09-08T00:01:16;95942.19;;;20.60;89.35
10652;BME280;5374;42.742;23.266;2023-09-08T00:04:05;95935.91;;;20.51;92.32
10652;BME280;5374;42.742;23.266;2023-09-08T00:06:53;95934.63;;;20.48;93.61
10652;BME280;5374;42.742;23.266;2023-09-08T00:09:40;95935.13;;;20.51;93.94
10652;BME280;5374;42.742;23.266;2023-09-08T00:12:27;95923.31;;;20.46;95.79
10652;BME280;5374;42.742;23.266;2023-09-08T00:15:14;95927.03;;;20.51;95.61
10652;BME280;5374;42.742;23.266;2023-09-08T00:18:01;95919.41;;;20.39;97.20
10652;BME280;5374;42.742;23.266;2023-09-08T00:20:50;95935.22;;;20.45;96.98
10652;BME280;5374;42.742;23.266;2023-09-08T00:23:37;95919.19;;;20.35;97.23
10652;BME280;5374;42.742;23.266;2023-09-08T00:26:24;95919.19;;;20.35;96.41
10652;BME280;5374;42.742;23.266;2023-09-08T00:29:11;95901.50;;;20.29;95.87
10652;BME280;5374;42.742;23.266;2023-09-08T00:31:58;95885.31;;;20.15;95.72
10652;BME280;5374;42.742;23.266;2023-09-08T00:34:46;95926.47;;;20.35;95.90
10652;BME280;5374;42.742;23.266;2023-09-08T00:37:34;95914.19;;;20.29;96.10
10652;BME280;5374;42.742;23.266;2023-09-08T00:40:21;95917.78;;;20.24;96.14
10652;BME280;5374;42.742;23.266;2023-09-08T00:43:30;95921.25;;;20.11;97.35
10652;BME280;5374;42.742;23.266;2023-09-08T00:46:17;95914.88;;;20.07;96.44
10652;BME280;5374;42.742;23.266;2023-09-08T00:49:05;95921.25;;;20.11;95.81
10652;BME280;5374;42.742;23.266;2023-09-08T00:52:37;95923.47;;;20.09;95.25
10652;BME280;5374;42.742;23.266;2023-09-08T00:55:25;95892.09;;;19.86;94.94
10652;BME280;5374;42.742;23.266;2023-09-08T00:58:12;95920.88;;;20.04;94.44
10652;BME280;5374;42.742;23.266;2023-09-08T01:00:59;95917.66;;;20.02;94.34
10652;BME280;5374;42.742;23.266;2023-09-08T01:03:46;95917.97;;;20.00;93.89
10652;BME280;5374;42.742;23.266;2023-09-08T01:06:33;95904.66;;;19.90;94.11
10652;BME280;5374;42.742;23.266;2023-09-08T01:09:32;95911.47;;;19.88;93.72
10652;BME280;5374;42.742;23.266;2023-09-08T01:12:19;95911.47;;;19.88;94.04
10652;BME280;5374;42.742;23.266;2023-09-08T01:15:07;95918.03;;;19.82;93.73
10652;BME280;5374;42.742;23.266;2023-09-08T01:17:54;95917.22;;;19.81;93.66
10652;BME280;5374;42.742;23.266;2023-09-08T01:20:53;95913.03;;;19.75;94.36
10652;BME280;5374;42.742;23.266;2023-09-08T01:23:59;95913.59;;;19.72;93.00
10652;BME280;5374;42.742;23.266;2023-09-08T01:26:55;95917.19;;;19.67;93.57
10652;BME280;5374;42.742;23.266;2023-09-08T01:29:44;95908.28;;;19.67;92.82
10652;BME280;5374;42.742;23.266;2023-09-08T01:32:33;95907.03;;;19.64;92.59
10652;BME280;5374;42.742;23.266;2023-09-08T01:35:21;95907.91;;;19.60;92.05
10652;BME280;5374;42.742;23.266;2023-09-08T01:38:08;95906.50;;;19.62;91.01
10652;BME280;5374;42.742;23.266;2023-09-08T01:40:55;95905.78;;;19.57;91.13
10652;BME280;5374;42.742;23.266;2023-09-08T01:43:44;95908.56;;;19.52;91.25
10652;BME280;5374;42.742;23.266;2023-09-08T01:46:31;95899.91;;;19.55;91.31
10652;BME280;5374;42.742;23.266;2023-09-08T01:49:20;95901.28;;;19.52;91.71
10652;BME280;5374;42.742;23.266;2023-09-08T01:52:08;95910.72;;;19.50;91.94
10652;BME280;5374;42.742;23.266;2023-09-08T01:54:55;95894.03;;;19.47;92.17
10652;BME280;5374;42.742;23.266;2023-09-08T01:57:42;95895.59;;;19.54;92.53
10652;BME280;5374;42.742;23.266;2023-09-08T02:00:31;95890.78;;;19.51;92.88
10652;BME280;5374;42.742;23.266;2023-09-08T02:03:18;95897.03;;;19.46;93.83
10652;BME280;5374;42.742;23.266;2023-09-08T02:06:05;95893.72;;;19.35;95.03
10652;BME280;5374;42.742;23.266;2023-09-08T02:08:52;95892.91;;;19.35;95.49
10652;BME280;5374;42.742;23.266;2023-09-08T02:11:39;95888.78;;;19.24;96.83
10652;BME280;5374;42.742;23.266;2023-09-08T02:14:28;95877.66;;;19.11;98.96
10652;BME280;5374;42.742;23.266;2023-09-08T02:17:16;95883.84;;;19.12;99.71
10652;BME280;5374;42.742;23.266;2023-09-08T02:20:04;95891.69;;;19.08;100.00
10652;BME280;5374;42.742;23.266;2023-09-08T02:22:53;95890.97;;;19.03;100.00
10652;BME280;5374;42.742;23.266;2023-09-08T02:25:41;95879.97;;;18.99;100.00
10652;BME280;5374;42.742;23.266;2023-09-08T02:28:28;95881.97;;;18.94;100.00
10652;BME280;5374;42.742;23.266;2023-09-08T02:31:15;95869.38;;;18.89;100.00
10652;BME280;5374;42.742;23.266;2023-09-08T02:34:04;95877.22;;;18.86;100.00
10652;BME280;5374;42.742;23.266;2023-09-08T02:36:51;95882.91;;;18.84;100.00
10652;BME280;5374;42.742;23.266;2023-09-08T02:39:38;95882.97;;;18.79;100.00
10652;BME280;5374;42.742;23.266;2023-09-08T02:42:25;95868.06;;;18.68;100.00
10652;BME280;5374;42.742;23.266;2023-09-08T02:45:12;95887.41;;;18.70;100.00
10652;BME280;5374;42.742;23.266;2023-09-08T02:48:00;95879.97;;;18.62;100.00
10652;BME280;5374;42.742;23.266;2023-09-08T02:50:48;95849.53;;;18.42;100.00
10652;BME280;5374;42.742;23.266;2023-09-08T02:53:35;95887.78;;;18.58;100.00
10652;BME280;5374;42.742;23.266;2023-09-08T02:56:22;95845.78;;;18.43;100.00
10652;BME280;5374;42.742;23.266;2023-09-08T02:59:10;95870.06;;;18.57;100.00
10652;BME280;5374;42.742;23.266;2023-09-08T03:01:57;95870.72;;;18.49;100.00
10652;BME280;5374;42.742;23.266;2023-09-08T03:04:44;95866.34;;;18.53;100.00
10652;BME280;5374;42.742;23.266;2023-09-08T03:07:33;95866.41;;;18.48;100.00
10652;BME280;5374;42.742;23.266;2023-09-08T03:10:23;95881.19;;;18.51;100.00
10652;BME280;5374;42.742;23.266;2023-09-08T03:13:10;95882.00;;;18.51;100.00
10652;BME280;5374;42.742;23.266;2023-09-08T03:15:57;95884.97;;;18.50;99.88
10652;BME280;5374;42.742;23.266;2023-09-08T03:18:44;95879.88;;;18.48;97.99
10652;BME280;5374;42.742;23.266;2023-09-08T03:21:31;95878.38;;;18.37;97.21
10652;BME280;5374;42.742;23.266;2023-09-08T03:24:19;95881.13;;;18.32;97.12
10652;BME280;5374;42.742;23.266;2023-09-08T03:27:06;95879.31;;;18.27;96.46
10652;BME280;5374;42.742;23.266;2023-09-08T03:29:53;95867.81;;;18.22;96.27
10652;BME280;5374;42.742;23.266;2023-09-08T03:32:40;95870.78;;;18.20;95.59
10652;BME280;5374;42.742;23.266;2023-09-08T03:35:28;95861.97;;;18.15;94.88
10652;BME280;5374;42.742;23.266;2023-09-08T03:38:15;95878.91;;;18.15;94.39
10652;BME280;5374;42.742;23.266;2023-09-08T03:41:03;95884.34;;;18.10;94.16
10652;BME280;5374;42.742;23.266;2023-09-08T03:43:50;95877.97;;;18.06;93.45
10652;BME280;5374;42.742;23.266;2023-09-08T03:46:37;95885.56;;;17.99;93.27
10652;BME280;5374;42.742;23.266;2023-09-08T03:49:24;95875.41;;;17.91;93.98
10652;BME280;5374;42.742;23.266;2023-09-08T03:52:12;95869.53;;;17.89;94.58
10652;BME280;5374;42.742;23.266;2023-09-08T03:54:59;95884.78;;;17.93;94.99
10652;BME280;5374;42.742;23.266;2023-09-08T03:57:47;95877.31;;;17.90;95.26
10652;BME280;5374;42.742;23.266;2023-09-08T04:00:34;95885.88;;;17.92;95.04
10652;BME280;5374;42.742;23.266;2023-09-08T04:03:22;95872.56;;;17.82;95.38
10652;BME280;5374;42.742;23.266;2023-09-08T04:06:09;95884.56;;;17.90;95.00
10652;BME280;5374;42.742;23.266;2023-09-08T04:08:57;95883.47;;;17.91;94.79
10652;BME280;5374;42.742;23.266;2023-09-08T04:11:44;95883.19;;;17.92;95.03
10652;BME280;5374;42.742;23.266;2023-09-08T04:14:32;95881.03;;;17.94;94.80
10652;BME280;5374;42.742;23.266;2023-09-08T04:17:19;95881.03;;;17.94;95.12
10652;BME280;5374;42.742;23.266;2023-09-08T04:20:07;95889.03;;;17.99;94.90
10652;BME280;5374;42.742;23.266;2023-09-08T04:22:54;95883.25;;;18.11;94.58
10652;BME280;5374;42.742;23.266;2023-09-08T04:25:41;95887.03;;;18.10;94.65
10652;BME280;5374;42.742;23.266;2023-09-08T04:28:29;95885.59;;;18.18;93.77
10652;BME280;5374;42.742;23.266;2023-09-08T04:31:17;95893.06;;;18.26;93.22
10652;BME280;5374;42.742;23.266;2023-09-08T04:34:05;95893.28;;;18.29;91.50
10652;BME280;5374;42.742;23.266;2023-09-08T04:36:52;95896.34;;;18.41;90.56
10652;BME280;5374;42.742;23.266;2023-09-08T04:39:39;95903.78;;;18.50;90.79
10652;BME280;5374;42.742;23.266;2023-09-08T04:42:27;95897.00;;;18.76;88.96
10652;BME280;5374;42.742;23.266;2023-09-08T04:45:15;95895.72;;;19.11;88.68
10652;BME280;5374;42.742;23.266;2023-09-08T04:48:04;95889.91;;;21.20;77.37
10652;BME280;5374;42.742;23.266;2023-09-08T04:50:52;95884.03;;;23.93;60.95
10652;BME280;5374;42.742;23.266;2023-09-08T04:53:39;95876.91;;;26.14;52.39
10652;BME280;5374;42.742;23.266;2023-09-08T04:56:26;95918.31;;;27.81;45.84
10652;BME280;5374;42.742;23.266;2023-09-08T04:59:13;95919.66;;;28.63;43.68
10652;BME280;5374;42.742;23.266;2023-09-08T05:02:00;95916.69;;;29.18;41.94
10652;BME280;5374;42.742;23.266;2023-09-08T05:04:48;95922.44;;;30.06;40.32
10652;BME280;5374;42.742;23.266;2023-09-08T05:07:36;95926.84;;;31.88;37.33
10652;BME280;5374;42.742;23.266;2023-09-08T05:10:23;95924.84;;;33.76;33.82
10652;BME280;5374;42.742;23.266;2023-09-08T05:13:10;95927.88;;;35.22;31.48
10652;BME280;5374;42.742;23.266;2023-09-08T05:15:57;95930.16;;;36.46;29.56
10652;BME280;5374;42.742;23.266;2023-09-08T05:18:56;95931.03;;;37.36;29.20
10652;BME280;5374;42.742;23.266;2023-09-08T05:21:44;95930.38;;;38.27;28.04
10652;BME280;5374;42.742;23.266;2023-09-08T05:24:32;95927.28;;;39.02;27.16
10652;BME280;5374;42.742;23.266;2023-09-08T05:27:19;95929.81;;;39.79;26.38
10652;BME280;5374;42.742;23.266;2023-09-08T05:30:07;95943.03;;;40.87;25.44
10652;BME280;5374;42.742;23.266;2023-09-08T05:32:54;95937.53;;;41.90;24.37
10652;BME280;5374;42.742;23.266;2023-09-08T05:35:43;95932.56;;;42.64;23.80
10652;BME280;5374;42.742;23.266;2023-09-08T05:38:32;95936.97;;;43.13;22.70
10652;BME280;5374;42.742;23.266;2023-09-08T05:41:19;95933.28;;;44.07;22.27
10652;BME280;5374;42.742;23.266;2023-09-08T05:44:08;95944.75;;;44.52;21.49
10652;BME280;5374;42.742;23.266;2023-09-08T05:46:55;95943.16;;;45.31;21.18
10652;BME280;5374;42.742;23.266;2023-09-08T05:49:42;95946.00;;;45.95;19.99
10652;BME280;5374;42.742;23.266;2023-09-08T05:52:29;95931.47;;;46.67;19.40
10652;BME280;5374;42.742;23.266;2023-09-08T05:55:20;95935.63;;;46.38;19.84
10652;BME280;5374;42.742;23.266;2023-09-08T05:58:07;95941.44;;;47.01;18.70
10652;BME280;5374;42.742;23.266;2023-09-08T06:00:54;95937.16;;;46.90;18.54
10652;BME280;5374;42.742;23.266;2023-09-08T06:03:41;95946.75;;;47.08;18.26
10652;BME280;5374;42.742;23.266;2023-09-08T06:06:29;95945.72;;;46.96;17.96
10652;BME280;5374;42.742;23.266;2023-09-08T06:09:16;95933.94;;;47.54;18.14
10652;BME280;5374;42.742;23.266;2023-09-08T06:12:05;95940.47;;;48.43;17.36
10652;BME280;5374;42.742;23.266;2023-09-08T06:14:53;95938.59;;;47.43;17.97
10652;BME280;5374;42.742;23.266;2023-09-08T06:17:40;95931.66;;;45.84;19.16
10652;BME280;5374;42.742;23.266;2023-09-08T06:20:27;95936.28;;;46.15;18.91
10652;BME280;5374;42.742;23.266;2023-09-08T06:23:14;95933.34;;;44.16;20.01
10652;BME280;5374;42.742;23.266;2023-09-08T06:26:02;95948.34;;;43.18;21.06
10652;BME280;5374;42.742;23.266;2023-09-08T06:28:50;95933.19;;;41.31;21.99
10652;BME280;5374;42.742;23.266;2023-09-08T06:31:37;95947.59;;;39.85;23.49
10652;BME280;5374;42.742;23.266;2023-09-08T06:34:24;95941.09;;;37.57;26.28
10652;BME280;5374;42.742;23.266;2023-09-08T06:37:12;95936.88;;;36.49;27.28
10652;BME280;5374;42.742;23.266;2023-09-08T06:39:59;95943.53;;;35.85;27.58
10652;BME280;5374;42.742;23.266;2023-09-08T06:42:46;95939.69;;;35.26;28.71
10652;BME280;5374;42.742;23.266;2023-09-08T06:45:37;95944.84;;;35.10;29.06
10652;BME280;5374;42.742;23.266;2023-09-08T06:48:24;95940.50;;;34.73;28.97
10652;BME280;5374;42.742;23.266;2023-09-08T06:51:11;95942.31;;;34.02;29.91
10652;BME280;5374;42.742;23.266;2023-09-08T06:53:59;95935.34;;;33.42;30.58
10652;BME280;5374;42.742;23.266;2023-09-08T06:56:46;95915.75;;;32.55;32.03
10652;BME280;5374;42.742;23.266;2023-09-08T06:59:33;95944.69;;;32.39;31.91
10652;BME280;5374;42.742;23.266;2023-09-08T07:02:21;95943.41;;;31.95;32.66
10652;BME280;5374;42.742;23.266;2023-09-08T07:05:08;95944.31;;;31.73;32.88
10652;BME280;5374;42.742;23.266;2023-09-08T07:08:07;95945.06;;;31.70;33.69
10652;BME280;5374;42.742;23.266;2023-09-08T07:10:55;95942.41;;;31.21;34.09
10652;BME280;5374;42.742;23.266;2023-09-08T07:13:42;95942.75;;;31.16;33.83
10652;BME280;5374;42.742;23.266;2023-09-08T07:16:29;95935.16;;;30.83;34.36
10652;BME280;5374;42.742;23.266;2023-09-08T07:19:17;95946.34;;;30.71;34.63
10652;BME280;5374;42.742;23.266;2023-09-08T07:22:05;95940.25;;;30.39;35.21
10652;BME280;5374;42.742;23.266;2023-09-08T07:24:52;95941.19;;;30.46;35.38
10652;BME280;5374;42.742;23.266;2023-09-08T07:27:39;95939.75;;;30.33;35.55
10652;BME280;5374;42.742;23.266;2023-09-08T07:30:26;95938.50;;;30.27;35.09
10652;BME280;5374;42.742;23.266;2023-09-08T07:33:14;95930.56;;;30.22;35.98
10652;BME280;5374;42.742;23.266;2023-09-08T07:36:05;95938.22;;;30.13;35.55
10652;BME280;5374;42.742;23.266;2023-09-08T07:38:52;95941.97;;;29.85;36.17
10652;BME280;5374;42.742;23.266;2023-09-08T07:41:39;95927.00;;;29.99;36.03
10652;BME280;5374;42.742;23.266;2023-09-08T07:44:27;95927.13;;;30.06;35.97
10652;BME280;5374;42.742;23.266;2023-09-08T07:47:14;95930.28;;;30.08;35.32
10652;BME280;5374;42.742;23.266;2023-09-08T07:50:18;95928.97;;;30.21;35.25
10652;BME280;5374;42.742;23.266;2023-09-08T07:53:07;95923.28;;;30.10;36.23
10652;BME280;5374;42.742;23.266;2023-09-08T07:55:55;95914.53;;;29.82;36.64
10652;BME280;5374;42.742;23.266;2023-09-08T07:58:42;95918.78;;;29.99;36.82
10652;BME280;5374;42.742;23.266;2023-09-08T08:01:29;95909.41;;;29.80;36.53
10652;BME280;5374;42.742;23.266;2023-09-08T08:04:16;95912.56;;;29.63;37.40
10652;BME280;5374;42.742;23.266;2023-09-08T08:07:03;95906.97;;;29.75;35.00
10652;BME280;5374;42.742;23.266;2023-09-08T08:09:52;95906.81;;;29.68;35.36
10652;BME280;5374;42.742;23.266;2023-09-08T08:12:40;95917.41;;;29.50;35.48
10652;BME280;5374;42.742;23.266;2023-09-08T08:15:35;95912.00;;;28.68;35.81
10652;BME280;5374;42.742;23.266;2023-09-08T08:18:22;95905.66;;;28.33;36.44
10652;BME280;5374;42.742;23.266;2023-09-08T08:21:09;95891.72;;;28.53;35.74
10652;BME280;5374;42.742;23.266;2023-09-08T08:23:57;95913.84;;;28.48;36.00
10652;BME280;5374;42.742;23.266;2023-09-08T08:26:45;95906.41;;;28.17;36.59
10652;BME280;5374;42.742;23.266;2023-09-08T08:29:32;95889.63;;;28.03;36.33
10652;BME280;5374;42.742;23.266;2023-09-08T08:32:19;95909.63;;;28.07;36.18
10652;BME280;5374;42.742;23.266;2023-09-08T08:35:07;95914.03;;;28.40;36.69
10652;BME280;5374;42.742;23.266;2023-09-08T08:37:54;95911.47;;;28.63;35.60
10652;BME280;5374;42.742;23.266;2023-09-08T08:40:41;95909.25;;;28.37;35.87
10652;BME280;5374;42.742;23.266;2023-09-08T08:43:30;95903.78;;;28.52;34.76
10652;BME280;5374;42.742;23.266;2023-09-08T08:46:19;95897.19;;;28.53;35.70
10652;BME280;5374;42.742;23.266;2023-09-08T08:49:09;95907.22;;;28.49;34.79
10652;BME280;5374;42.742;23.266;2023-09-08T08:51:58;95892.53;;;28.38;34.10
10652;BME280;5374;42.742;23.266;2023-09-08T08:54:46;95889.25;;;27.73;36.42
10652;BME280;5374;42.742;23.266;2023-09-08T08:57:33;95892.34;;;27.87;35.64
10652;BME280;5374;42.742;23.266;2023-09-08T09:00:22;95885.50;;;27.94;35.89
10652;BME280;5374;42.742;23.266;2023-09-08T09:03:09;95889.22;;;28.17;35.97
10652;BME280;5374;42.742;23.266;2023-09-08T09:05:57;95883.28;;;28.43;35.28
10652;BME280;5374;42.742;23.266;2023-09-08T09:08:45;95885.13;;;28.23;35.94
10652;BME280;5374;42.742;23.266;2023-09-08T09:11:32;95889.81;;;28.10;35.14
10652;BME280;5374;42.742;23.266;2023-09-08T09:14:20;95885.13;;;28.23;34.61
10652;BME280;5374;42.742;23.266;2023-09-08T09:17:13;95886.66;;;28.08;35.43
10652;BME280;5374;42.742;23.266;2023-09-08T09:20:13;95886.06;;;27.71;36.29
10652;BME280;5374;42.742;23.266;2023-09-08T09:23:03;95894.47;;;27.78;36.31
10652;BME280;5374;42.742;23.266;2023-09-08T09:25:50;95896.00;;;27.79;36.54
10652;BME280;5374;42.742;23.266;2023-09-08T09:28:46;95889.00;;;27.78;36.44
10652;BME280;5374;42.742;23.266;2023-09-08T09:31:34;95867.84;;;27.75;36.55
10652;BME280;5374;42.742;23.266;2023-09-08T09:34:23;95878.16;;;27.82;36.53
10652;BME280;5374;42.742;23.266;2023-09-08T09:37:10;95883.28;;;27.55;37.14
10652;BME280;5374;42.742;23.266;2023-09-08T09:40:00;95900.66;;;27.63;36.54
10652;BME280;5374;42.742;23.266;2023-09-08T09:42:48;95893.94;;;27.20;37.19
10652;BME280;5374;42.742;23.266;2023-09-08T09:45:37;95887.03;;;27.11;38.09
10652;BME280;5374;42.742;23.266;2023-09-08T09:48:25;95884.56;;;27.06;38.38
10652;BME280;5374;42.742;23.266;2023-09-08T09:51:16;95885.34;;;27.06;37.80
10652;BME280;5374;42.742;23.266;2023-09-08T09:54:06;95876.59;;;26.88;37.94
10652;BME280;5374;42.742;23.266;2023-09-08T09:56:53;95876.28;;;26.78;39.02
10652;BME280;5374;42.742;23.266;2023-09-08T09:59:41;95863.69;;;26.37;39.76
10652;BME280;5374;42.742;23.266;2023-09-08T10:02:28;95863.78;;;26.77;39.49
10652;BME280;5374;42.742;23.266;2023-09-08T10:05:16;95870.47;;;26.79;40.05
10652;BME280;5374;42.742;23.266;2023-09-08T10:08:05;95870.09;;;26.93;38.94
10652;BME280;5374;42.742;23.266;2023-09-08T10:10:52;95867.28;;;27.02;39.63
10652;BME280;5374;42.742;23.266;2023-09-08T10:13:44;95862.97;;;27.01;38.24
10652;BME280;5374;42.742;23.266;2023-09-08T10:16:35;95857.94;;;26.90;39.12
10652;BME280;5374;42.742;23.266;2023-09-08T10:19:23;95860.19;;;27.13;39.10
10652;BME280;5374;42.742;23.266;2023-09-08T10:22:12;95849.97;;;27.22;39.30
10652;BME280;5374;42.742;23.266;2023-09-08T10:25:06;95852.16;;;27.44;38.68
10652;BME280;5374;42.742;23.266;2023-09-08T10:27:54;95845.56;;;27.45;38.82
10652;BME280;5374;42.742;23.266;2023-09-08T10:30:42;95853.41;;;27.47;38.77
10652;BME280;5374;42.742;23.266;2023-09-08T10:33:30;95855.28;;;27.31;38.99
10652;BME280;5374;42.742;23.266;2023-09-08T10:36:17;95852.63;;;27.34;38.39
10652;BME280;5374;42.742;23.266;2023-09-08T10:39:37;95848.19;;;27.42;39.29
10652;BME280;5374;42.742;23.266;2023-09-08T10:42:27;95845.41;;;27.26;39.65
10652;BME280;5374;42.742;23.266;2023-09-08T10:45:16;95841.44;;;27.23;39.24
10652;BME280;5374;42.742;23.266;2023-09-08T10:48:06;95838.03;;;27.14;39.29
10652;BME280;5374;42.742;23.266;2023-09-08T10:50:53;95840.78;;;27.14;39.34
10652;BME280;5374;42.742;23.266;2023-09-08T10:53:40;95833.41;;;26.90;39.86
10652;BME280;5374;42.742;23.266;2023-09-08T10:56:47;95837.34;;;27.30;39.19
10652;BME280;5374;42.742;23.266;2023-09-08T10:59:37;95829.94;;;27.58;38.23
10652;BME280;5374;42.742;23.266;2023-09-08T11:02:39;95835.91;;;27.91;37.95
10652;BME280;5374;42.742;23.266;2023-09-08T11:05:26;95842.25;;;28.11;37.62
10652;BME280;5374;42.742;23.266;2023-09-08T11:08:14;95825.16;;;28.14;36.96
10652;BME280;5374;42.742;23.266;2023-09-08T11:11:03;95819.72;;;27.99;38.00
10652;BME280;5374;42.742;23.266;2023-09-08T11:13:50;95823.59;;;28.29;36.85
10652;BME280;5374;42.742;23.266;2023-09-08T11:16:39;95816.78;;;28.54;36.83
10652;BME280;5374;42.742;23.266;2023-09-08T11:19:45;95811.56;;;28.65;37.27
10652;BME280;5374;42.742;23.266;2023-09-08T11:22:32;95798.84;;;28.22;37.54
10652;BME280;5374;42.742;23.266;2023-09-08T11:25:20;95809.63;;;28.66;36.50
10652;BME280;5374;42.742;23.266;2023-09-08T11:28:08;95800.34;;;28.70;36.46
10652;BME280;5374;42.742;23.266;2023-09-08T11:30:55;95816.69;;;28.51;36.42
10652;BME280;5374;42.742;23.266;2023-09-08T11:33:44;95795.69;;;28.20;37.24
10652;BME280;5374;42.742;23.266;2023-09-08T11:36:35;95796.44;;;28.05;37.26
10652;BME280;5374;42.742;23.266;2023-09-08T11:39:23;95802.06;;;27.80;38.23
10652;BME280;5374;42.742;23.266;2023-09-08T11:42:12;95801.72;;;27.82;38.00
10652;BME280;5374;42.742;23.266;2023-09-08T11:45:00;95792.81;;;27.85;37.93
10652;BME280;5374;42.742;23.266;2023-09-08T11:47:49;95785.88;;;27.72;38.22
10652;BME280;5374;42.742;23.266;2023-09-08T11:50:40;95793.97;;;27.84;38.11
10652;BME280;5374;42.742;23.266;2023-09-08T11:53:28;95788.84;;;27.82;37.90
10652;BME280;5374;42.742;23.266;2023-09-08T11:56:17;95785.06;;;28.03;37.71
10652;BME280;5374;42.742;23.266;2023-09-08T11:59:05;95774.78;;;28.12;38.12
10652;BME280;5374;42.742;23.266;2023-09-08T12:01:55;95772.41;;;28.26;37.73
10652;BME280;5374;42.742;23.266;2023-09-08T12:04:44;95752.47;;;28.10;36.99
10652;BME280;5374;42.742;23.266;2023-09-08T12:07:33;95772.50;;;27.98;37.30
10652;BME280;5374;42.742;23.266;2023-09-08T12:10:21;95777.25;;;27.85;37.67
10652;BME280;5374;42.742;23.266;2023-09-08T12:13:08;95783.13;;;27.87;37.47
10652;BME280;5374;42.742;23.266;2023-09-08T12:15:56;95774.09;;;27.99;38.09
10652;BME280;5374;42.742;23.266;2023-09-08T12:18:43;95768.44;;;27.92;38.45
10652;BME280;5374;42.742;23.266;2023-09-08T12:21:31;95772.31;;;28.07;37.21
10652;BME280;5374;42.742;23.266;2023-09-08T12:24:19;95766.94;;;27.95;37.80
10652;BME280;5374;42.742;23.266;2023-09-08T12:27:09;95727.22;;;27.66;38.05
10652;BME280;5374;42.742;23.266;2023-09-08T12:29:57;95769.06;;;27.85;37.82
10652;BME280;5374;42.742;23.266;2023-09-08T12:32:48;95757.53;;;27.76;38.04
10652;BME280;5374;42.742;23.266;2023-09-08T12:35:35;95756.25;;;27.58;37.93
10652;BME280;5374;42.742;23.266;2023-09-08T12:38:22;95770.50;;;27.51;38.45
10652;BME280;5374;42.742;23.266;2023-09-08T12:41:11;95760.25;;;27.33;38.44
10652;BME280;5374;42.742;23.266;2023-09-08T12:43:58;95746.63;;;27.33;38.22
10652;BME280;5374;42.742;23.266;2023-09-08T12:46:45;95760.25;;;27.33;38.28
10652;BME280;5374;42.742;23.266;2023-09-08T12:49:32;95744.53;;;27.14;38.02
10652;BME280;5374;42.742;23.266;2023-09-08T12:52:19;95749.41;;;27.20;38.89
10652;BME280;5374;42.742;23.266;2023-09-08T12:55:07;95753.50;;;27.14;38.43
10652;BME280;5374;42.742;23.266;2023-09-08T12:57:56;95747.53;;;27.09;38.47
10652;BME280;5374;42.742;23.266;2023-09-08T13:00:44;95742.00;;;26.93;38.77
10652;BME280;5374;42.742;23.266;2023-09-08T13:03:31;95746.19;;;26.90;38.46
10652;BME280;5374;42.742;23.266;2023-09-08T13:06:18;95753.22;;;26.91;38.42
10652;BME280;5374;42.742;23.266;2023-09-08T13:09:05;95744.41;;;26.95;38.56
10652;BME280;5374;42.742;23.266;2023-09-08T13:11:53;95742.88;;;27.09;38.64
10652;BME280;5374;42.742;23.266;2023-09-08T13:14:41;95740.44;;;27.36;38.03
10652;BME280;5374;42.742;23.266;2023-09-08T13:17:29;95750.34;;;27.56;37.70
10652;BME280;5374;42.742;23.266;2023-09-08T13:20:16;95744.75;;;27.80;38.09
10652;BME280;5374;42.742;23.266;2023-09-08T13:23:03;95741.22;;;27.96;36.63
10652;BME280;5374;42.742;23.266;2023-09-08T13:25:51;95742.91;;;27.84;36.63
10652;BME280;5374;42.742;23.266;2023-09-08T13:28:38;95738.78;;;27.75;37.77
10652;BME280;5374;42.742;23.266;2023-09-08T13:31:26;95749.06;;;27.81;37.27
10652;BME280;5374;42.742;23.266;2023-09-08T13:34:13;95746.16;;;27.74;37.42
10652;BME280;5374;42.742;23.266;2023-09-08T13:37:01;95744.66;;;27.61;37.71
10652;BME280;5374;42.742;23.266;2023-09-08T13:39:51;95738.25;;;27.69;37.71
10652;BME280;5374;42.742;23.266;2023-09-08T13:42:38;95739.25;;;27.49;38.73
10652;BME280;5374;42.742;23.266;2023-09-08T13:45:25;95715.78;;;27.60;37.76
10652;BME280;5374;42.742;23.266;2023-09-08T13:48:14;95741.31;;;27.68;38.04
10652;BME280;5374;42.742;23.266;2023-09-08T13:51:02;95735.41;;;27.81;37.84
10652;BME280;5374;42.742;23.266;2023-09-08T13:53:52;95738.41;;;27.92;38.29
10652;BME280;5374;42.742;23.266;2023-09-08T13:56:40;95729.50;;;27.95;38.20
10652;BME280;5374;42.742;23.266;2023-09-08T13:59:30;95736.28;;;27.85;38.63
10652;BME280;5374;42.742;23.266;2023-09-08T14:02:18;95727.50;;;27.76;37.85
10652;BME280;5374;42.742;23.266;2023-09-08T14:05:10;95762.03;;;27.56;39.22
10652;BME280;5374;42.742;23.266;2023-09-08T14:07:59;95736.97;;;27.51;38.63
10652;BME280;5374;42.742;23.266;2023-09-08T14:10:46;95749.97;;;27.42;39.12
10652;BME280;5374;42.742;23.266;2023-09-08T14:13:34;95748.38;;;27.41;38.61
10652;BME280;5374;42.742;23.266;2023-09-08T14:16:21;95739.38;;;27.24;38.77
10652;BME280;5374;42.742;23.266;2023-09-08T14:19:08;95719.28;;;27.01;39.23
10652;BME280;5374;42.742;23.266;2023-09-08T14:21:56;95734.69;;;27.09;40.03
10652;BME280;5374;42.742;23.266;2023-09-08T14:24:43;95737.31;;;27.06;39.32
10652;BME280;5374;42.742;23.266;2023-09-08T14:27:31;95735.13;;;26.83;38.99
10652;BME280;5374;42.742;23.266;2023-09-08T14:30:19;95723.19;;;26.76;39.14
10652;BME280;5374;42.742;23.266;2023-09-08T14:33:07;95730.03;;;26.70;39.29
10652;BME280;5374;42.742;23.266;2023-09-08T14:35:54;95736.78;;;26.60;39.65
10652;BME280;5374;42.742;23.266;2023-09-08T14:38:43;95740.63;;;26.59;40.11
10652;BME280;5374;42.742;23.266;2023-09-08T14:41:30;95741.44;;;26.60;39.75
10652;BME280;5374;42.742;23.266;2023-09-08T14:44:17;95726.44;;;26.53;39.85
10652;BME280;5374;42.742;23.266;2023-09-08T14:47:10;95727.13;;;26.50;40.01
10652;BME280;5374;42.742;23.266;2023-09-08T14:49:58;95734.41;;;26.46;40.17
10652;BME280;5374;42.742;23.266;2023-09-08T14:52:45;95729.84;;;26.50;40.47